sensor_id;sensor_type;location;lat;lon;timestamp;P1;durP1;ratioP1;P2;durP2;ratioP2
22468;SDS011;11401;50.792;4.352;2022-12-18T00:03:50;21.38;;;13.05;;
22468;SDS011;11401;50.792;4.352;2022-12-18T00:06:18;16.10;;;12.30;;
22468;SDS011;11401;50.792;4.352;2022-12-18T00:08:48;18.63;;;12.98;;
22468;SDS011;11401;50.792;4.352;2022-12-18T00:11:19;17.90;;;12.57;;
22468;SDS011;11401;50.792;4.352;2022-12-18T00:13:47;19.95;;;13.63;;
22468;SDS011;11401;50.792;4.352;2022-12-18T00:16:16;17.38;;;12.20;;
22468;SDS011;11401;50.792;4.352;2022-12-18T00:18:48;17.23;;;12.65;;
22468;SDS011;11401;50.792;4.352;2022-12-18T00:21:16;18.52;;;13.65;;
22468;SDS011;11401;50.792;4.352;2022-12-18T00:23:45;18.02;;;13.25;;
22468;SDS011;11401;50.792;4.352;2022-12-18T00:26:14;20.42;;;12.38;;
22468;SDS011;11401;50.792;4.352;2022-12-18T00:28:48;17.30;;;12.30;;
22468;SDS011;11401;50.792;4.352;2022-12-18T00:31:16;20.20;;;13.95;;
22468;SDS011;11401;50.792;4.352;2022-12-18T00:33:46;20.00;;;13.75;;
22468;SDS011;11401;50.792;4.352;2022-12-18T00:36:19;22.20;;;13.93;;
22468;SDS011;11401;50.792;4.352;2022-12-18T00:42:01;19.60;;;13.02;;
22468;SDS011;11401;50.792;4.352;2022-12-18T00:44:47;20.83;;;12.93;;
22468;SDS011;11401;50.792;4.352;2022-12-18T00:47:14;18.17;;;12.27;;
22468;SDS011;11401;50.792;4.352;2022-12-18T00:49:41;19.60;;;12.10;;
22468;SDS011;11401;50.792;4.352;2022-12-18T00:52:07;18.25;;;12.73;;
22468;SDS011;11401;50.792;4.352;2022-12-18T00:54:34;20.30;;;12.80;;
22468;SDS011;11401;50.792;4.352;2022-12-18T00:57:01;19.95;;;12.35;;
22468;SDS011;11401;50.792;4.352;2022-12-18T00:59:28;19.58;;;13.18;;
22468;SDS011;11401;50.792;4.352;2022-12-18T01:01:56;18.33;;;12.30;;
22468;SDS011;11401;50.792;4.352;2022-12-18T01:04:23;20.35;;;11.95;;
22468;SDS011;11401;50.792;4.352;2022-12-18T01:06:50;19.90;;;12.23;;
22468;SDS011;11401;50.792;4.352;2022-12-18T01:09:17;19.38;;;11.75;;
22468;SDS011;11401;50.792;4.352;2022-12-18T01:11:44;23.42;;;14.27;;
22468;SDS011;11401;50.792;4.352;2022-12-18T01:14:11;19.13;;;12.45;;
22468;SDS011;11401;50.792;4.352;2022-12-18T01:16:38;20.75;;;15.88;;
22468;SDS011;11401;50.792;4.352;2022-12-18T01:19:05;17.83;;;13.45;;
22468;SDS011;11401;50.792;4.352;2022-12-18T01:21:32;18.65;;;12.27;;
22468;SDS011;11401;50.792;4.352;2022-12-18T01:24:02;15.05;;;11.48;;
22468;SDS011;11401;50.792;4.352;2022-12-18T01:26:29;16.02;;;11.15;;
22468;SDS011;11401;50.792;4.352;2022-12-18T01:28:56;16.00;;;11.13;;
22468;SDS011;11401;50.792;4.352;2022-12-18T01:31:28;17.17;;;11.13;;
22468;SDS011;11401;50.792;4.352;2022-12-18T01:33:57;15.82;;;10.57;;
22468;SDS011;11401;50.792;4.352;2022-12-18T01:36:30;15.35;;;11.07;;
22468;SDS011;11401;50.792;4.352;2022-12-18T01:39:03;15.35;;;10.70;;
22468;SDS011;11401;50.792;4.352;2022-12-18T01:41:40;17.70;;;11.95;;
22468;SDS011;11401;50.792;4.352;2022-12-18T01:50:11;13.48;;;9.30;;
22468;SDS011;11401;50.792;4.352;2022-12-18T01:52:48;15.32;;;10.63;;
22468;SDS011;11401;50.792;4.352;2022-12-18T01:55:29;13.90;;;9.93;;
22468;SDS011;11401;50.792;4.352;2022-12-18T01:58:01;14.30;;;11.25;;
22468;SDS011;11401;50.792;4.352;2022-12-18T02:00:29;14.77;;;10.23;;
22468;SDS011;11401;50.792;4.352;2022-12-18T02:02:56;13.23;;;9.15;;
22468;SDS011;11401;50.792;4.352;2022-12-18T02:05:34;13.93;;;9.23;;
22468;SDS011;11401;50.792;4.352;2022-12-18T02:08:15;12.48;;;9.57;;
22468;SDS011;11401;50.792;4.352;2022-12-18T02:16:29;13.85;;;9.25;;
22468;SDS011;11401;50.792;4.352;2022-12-18T02:19:39;11.43;;;8.57;;
22468;SDS011;11401;50.792;4.352;2022-12-18T02:25:13;11.35;;;8.63;;
22468;SDS011;11401;50.792;4.352;2022-12-18T02:28:01;13.50;;;8.68;;
22468;SDS011;11401;50.792;4.352;2022-12-18T02:30:33;10.80;;;8.57;;
22468;SDS011;11401;50.792;4.352;2022-12-18T02:33:01;13.35;;;9.30;;
22468;SDS011;11401;50.792;4.352;2022-12-18T02:35:32;13.60;;;9.25;;
22468;SDS011;11401;50.792;4.352;2022-12-18T02:38:01;11.50;;;8.93;;
22468;SDS011;11401;50.792;4.352;2022-12-18T02:40:33;11.95;;;8.48;;
22468;SDS011;11401;50.792;4.352;2022-12-18T02:43:10;10.43;;;7.95;;
22468;SDS011;11401;50.792;4.352;2022-12-18T02:45:50;13.40;;;8.07;;
22468;SDS011;11401;50.792;4.352;2022-12-18T02:48:31;11.73;;;8.50;;
22468;SDS011;11401;50.792;4.352;2022-12-18T02:51:08;9.20;;;7.32;;
22468;SDS011;11401;50.792;4.352;2022-12-18T02:53:56;10.20;;;7.35;;
22468;SDS011;11401;50.792;4.352;2022-12-18T02:56:38;10.32;;;7.93;;
22468;SDS011;11401;50.792;4.352;2022-12-18T02:59:16;11.48;;;7.50;;
22468;SDS011;11401;50.792;4.352;2022-12-18T03:04:54;13.70;;;8.95;;
22468;SDS011;11401;50.792;4.352;2022-12-18T03:07:56;10.45;;;8.30;;
22468;SDS011;11401;50.792;4.352;2022-12-18T03:10:35;11.13;;;7.45;;
22468;SDS011;11401;50.792;4.352;2022-12-18T03:13:09;10.80;;;7.60;;
22468;SDS011;11401;50.792;4.352;2022-12-18T03:15:50;11.10;;;7.32;;
22468;SDS011;11401;50.792;4.352;2022-12-18T03:18:22;11.23;;;7.47;;
22468;SDS011;11401;50.792;4.352;2022-12-18T03:21:02;10.82;;;7.63;;
22468;SDS011;11401;50.792;4.352;2022-12-18T03:23:44;10.93;;;7.88;;
22468;SDS011;11401;50.792;4.352;2022-12-18T03:26:17;11.27;;;8.23;;
22468;SDS011;11401;50.792;4.352;2022-12-18T03:28:56;10.60;;;7.78;;
22468;SDS011;11401;50.792;4.352;2022-12-18T03:31:32;9.57;;;8.23;;
22468;SDS011;11401;50.792;4.352;2022-12-18T03:33:59;12.07;;;8.70;;
22468;SDS011;11401;50.792;4.352;2022-12-18T03:36:39;13.00;;;8.02;;
22468;SDS011;11401;50.792;4.352;2022-12-18T03:39:07;12.07;;;8.00;;
22468;SDS011;11401;50.792;4.352;2022-12-18T03:41:39;11.50;;;8.00;;
22468;SDS011;11401;50.792;4.352;2022-12-18T03:44:36;10.40;;;7.68;;
22468;SDS011;11401;50.792;4.352;2022-12-18T03:47:21;10.20;;;7.32;;
22468;SDS011;11401;50.792;4.352;2022-12-18T03:49:56;12.05;;;8.88;;
22468;SDS011;11401;50.792;4.352;2022-12-18T03:55:02;11.45;;;7.97;;
22468;SDS011;11401;50.792;4.352;2022-12-18T03:57:32;11.48;;;7.65;;
22468;SDS011;11401;50.792;4.352;2022-12-18T04:00:05;13.00;;;8.35;;
22468;SDS011;11401;50.792;4.352;2022-12-18T04:02:53;13.10;;;8.50;;
22468;SDS011;11401;50.792;4.352;2022-12-18T04:05:30;10.23;;;8.20;;
22468;SDS011;11401;50.792;4.352;2022-12-18T04:08:00;12.70;;;8.07;;
22468;SDS011;11401;50.792;4.352;2022-12-18T04:10:31;10.50;;;7.97;;
22468;SDS011;11401;50.792;4.352;2022-12-18T04:12:59;10.82;;;7.70;;
22468;SDS011;11401;50.792;4.352;2022-12-18T04:15:27;11.65;;;8.25;;
22468;SDS011;11401;50.792;4.352;2022-12-18T04:17:57;11.77;;;7.68;;
22468;SDS011;11401;50.792;4.352;2022-12-18T04:20:31;10.57;;;8.48;;
22468;SDS011;11401;50.792;4.352;2022-12-18T04:22:58;11.40;;;8.70;;
22468;SDS011;11401;50.792;4.352;2022-12-18T04:25:25;10.63;;;7.95;;
22468;SDS011;11401;50.792;4.352;2022-12-18T04:28:03;11.25;;;8.13;;
22468;SDS011;11401;50.792;4.352;2022-12-18T04:30:31;10.65;;;8.38;;
22468;SDS011;11401;50.792;4.352;2022-12-18T04:32:59;10.70;;;7.78;;
22468;SDS011;11401;50.792;4.352;2022-12-18T04:35:27;10.10;;;7.65;;
22468;SDS011;11401;50.792;4.352;2022-12-18T04:37:54;11.32;;;8.65;;
22468;SDS011;11401;50.792;4.352;2022-12-18T04:40:21;11.57;;;7.95;;
22468;SDS011;11401;50.792;4.352;2022-12-18T04:42:49;9.52;;;7.45;;
22468;SDS011;11401;50.792;4.352;2022-12-18T04:45:16;11.70;;;8.27;;
22468;SDS011;11401;50.792;4.352;2022-12-18T04:47:44;10.38;;;7.60;;
22468;SDS011;11401;50.792;4.352;2022-12-18T04:50:11;10.65;;;7.80;;
22468;SDS011;11401;50.792;4.352;2022-12-18T04:52:38;11.68;;;7.82;;
22468;SDS011;11401;50.792;4.352;2022-12-18T04:55:05;11.10;;;7.88;;
22468;SDS011;11401;50.792;4.352;2022-12-18T04:57:32;9.25;;;7.32;;
22468;SDS011;11401;50.792;4.352;2022-12-18T04:59:59;10.20;;;7.78;;
22468;SDS011;11401;50.792;4.352;2022-12-18T05:02:26;12.05;;;8.50;;
22468;SDS011;11401;50.792;4.352;2022-12-18T05:04:53;10.10;;;7.68;;
22468;SDS011;11401;50.792;4.352;2022-12-18T05:07:20;11.55;;;7.55;;
22468;SDS011;11401;50.792;4.352;2022-12-18T05:09:47;12.93;;;7.88;;
22468;SDS011;11401;50.792;4.352;2022-12-18T05:12:14;10.90;;;7.43;;
22468;SDS011;11401;50.792;4.352;2022-12-18T05:14:41;10.65;;;7.90;;
22468;SDS011;11401;50.792;4.352;2022-12-18T05:17:08;11.07;;;7.97;;
22468;SDS011;11401;50.792;4.352;2022-12-18T05:19:35;13.55;;;8.30;;
22468;SDS011;11401;50.792;4.352;2022-12-18T05:22:03;10.07;;;7.63;;
22468;SDS011;11401;50.792;4.352;2022-12-18T05:24:33;14.43;;;8.60;;
22468;SDS011;11401;50.792;4.352;2022-12-18T05:27:00;12.02;;;7.95;;
22468;SDS011;11401;50.792;4.352;2022-12-18T05:29:27;15.02;;;8.45;;
22468;SDS011;11401;50.792;4.352;2022-12-18T05:31:54;11.90;;;7.78;;
22468;SDS011;11401;50.792;4.352;2022-12-18T05:34:21;15.13;;;8.55;;
22468;SDS011;11401;50.792;4.352;2022-12-18T05:36:48;13.32;;;8.57;;
22468;SDS011;11401;50.792;4.352;2022-12-18T05:39:15;11.45;;;7.68;;
22468;SDS011;11401;50.792;4.352;2022-12-18T05:41:42;10.20;;;7.95;;
22468;SDS011;11401;50.792;4.352;2022-12-18T05:44:09;11.93;;;7.93;;
22468;SDS011;11401;50.792;4.352;2022-12-18T05:46:36;10.60;;;7.80;;
22468;SDS011;11401;50.792;4.352;2022-12-18T05:49:03;11.18;;;8.43;;
22468;SDS011;11401;50.792;4.352;2022-12-18T05:51:30;10.88;;;7.95;;
22468;SDS011;11401;50.792;4.352;2022-12-18T05:53:57;11.40;;;7.30;;
22468;SDS011;11401;50.792;4.352;2022-12-18T05:56:24;10.73;;;7.18;;
22468;SDS011;11401;50.792;4.352;2022-12-18T05:58:52;11.90;;;8.15;;
22468;SDS011;11401;50.792;4.352;2022-12-18T06:01:23;10.98;;;7.50;;
22468;SDS011;11401;50.792;4.352;2022-12-18T06:03:52;11.65;;;7.63;;
22468;SDS011;11401;50.792;4.352;2022-12-18T06:06:21;9.65;;;6.70;;
22468;SDS011;11401;50.792;4.352;2022-12-18T06:08:50;12.30;;;8.13;;
22468;SDS011;11401;50.792;4.352;2022-12-18T06:11:21;10.18;;;7.70;;
22468;SDS011;11401;50.792;4.352;2022-12-18T06:13:54;9.07;;;7.05;;
22468;SDS011;11401;50.792;4.352;2022-12-18T06:16:25;9.55;;;6.82;;
22468;SDS011;11401;50.792;4.352;2022-12-18T06:18:53;10.15;;;7.72;;
22468;SDS011;11401;50.792;4.352;2022-12-18T06:21:26;10.00;;;7.32;;
22468;SDS011;11401;50.792;4.352;2022-12-18T06:23:53;10.48;;;7.68;;
22468;SDS011;11401;50.792;4.352;2022-12-18T06:26:21;11.77;;;7.00;;
22468;SDS011;11401;50.792;4.352;2022-12-18T06:28:53;8.90;;;7.43;;
22468;SDS011;11401;50.792;4.352;2022-12-18T06:31:20;9.20;;;7.03;;
22468;SDS011;11401;50.792;4.352;2022-12-18T06:33:47;10.20;;;7.50;;
22468;SDS011;11401;50.792;4.352;2022-12-18T06:36:14;7.95;;;6.88;;
22468;SDS011;11401;50.792;4.352;2022-12-18T06:38:43;8.43;;;6.47;;
22468;SDS011;11401;50.792;4.352;2022-12-18T06:41:11;7.68;;;6.63;;
22468;SDS011;11401;50.792;4.352;2022-12-18T06:43:40;8.77;;;6.82;;
22468;SDS011;11401;50.792;4.352;2022-12-18T06:46:08;7.43;;;5.90;;
22468;SDS011;11401;50.792;4.352;2022-12-18T06:48:35;9.50;;;6.45;;
22468;SDS011;11401;50.792;4.352;2022-12-18T06:51:03;10.07;;;7.35;;
22468;SDS011;11401;50.792;4.352;2022-12-18T06:53:30;8.73;;;6.32;;
22468;SDS011;11401;50.792;4.352;2022-12-18T06:56:01;10.00;;;7.07;;
22468;SDS011;11401;50.792;4.352;2022-12-18T06:58:35;7.22;;;6.18;;
22468;SDS011;11401;50.792;4.352;2022-12-18T07:01:03;8.40;;;6.00;;
22468;SDS011;11401;50.792;4.352;2022-12-18T07:03:32;7.50;;;6.53;;
22468;SDS011;11401;50.792;4.352;2022-12-18T07:05:59;8.90;;;6.22;;
22468;SDS011;11401;50.792;4.352;2022-12-18T07:08:26;7.25;;;5.68;;
22468;SDS011;11401;50.792;4.352;2022-12-18T07:10:54;8.52;;;6.82;;
22468;SDS011;11401;50.792;4.352;2022-12-18T07:13:22;8.02;;;5.43;;
22468;SDS011;11401;50.792;4.352;2022-12-18T07:15:49;7.93;;;6.25;;
22468;SDS011;11401;50.792;4.352;2022-12-18T07:18:16;6.38;;;5.65;;
22468;SDS011;11401;50.792;4.352;2022-12-18T07:20:45;9.20;;;5.82;;
22468;SDS011;11401;50.792;4.352;2022-12-18T07:23:13;7.20;;;6.18;;
22468;SDS011;11401;50.792;4.352;2022-12-18T07:25:40;6.75;;;6.05;;
22468;SDS011;11401;50.792;4.352;2022-12-18T07:28:07;7.07;;;5.60;;
22468;SDS011;11401;50.792;4.352;2022-12-18T07:30:42;6.97;;;5.88;;
22468;SDS011;11401;50.792;4.352;2022-12-18T07:33:09;6.22;;;5.53;;
22468;SDS011;11401;50.792;4.352;2022-12-18T07:35:36;7.13;;;6.40;;
22468;SDS011;11401;50.792;4.352;2022-12-18T07:38:03;9.15;;;6.30;;
22468;SDS011;11401;50.792;4.352;2022-12-18T07:40:30;7.72;;;5.75;;
22468;SDS011;11401;50.792;4.352;2022-12-18T07:42:56;9.48;;;6.28;;
22468;SDS011;11401;50.792;4.352;2022-12-18T07:45:23;6.70;;;6.00;;
22468;SDS011;11401;50.792;4.352;2022-12-18T07:47:50;6.15;;;5.35;;
22468;SDS011;11401;50.792;4.352;2022-12-18T07:50:17;6.75;;;5.90;;
22468;SDS011;11401;50.792;4.352;2022-12-18T07:52:44;6.88;;;5.70;;
22468;SDS011;11401;50.792;4.352;2022-12-18T07:55:11;7.75;;;5.78;;
22468;SDS011;11401;50.792;4.352;2022-12-18T07:57:38;6.60;;;5.53;;
22468;SDS011;11401;50.792;4.352;2022-12-18T08:00:25;7.38;;;5.70;;
22468;SDS011;11401;50.792;4.352;2022-12-18T08:02:52;7.95;;;5.97;;
22468;SDS011;11401;50.792;4.352;2022-12-18T08:05:19;6.90;;;5.20;;
22468;SDS011;11401;50.792;4.352;2022-12-18T08:07:47;6.32;;;5.50;;
22468;SDS011;11401;50.792;4.352;2022-12-18T08:10:14;7.95;;;5.80;;
22468;SDS011;11401;50.792;4.352;2022-12-18T08:12:41;6.82;;;6.13;;
22468;SDS011;11401;50.792;4.352;2022-12-18T08:15:08;6.45;;;5.60;;
22468;SDS011;11401;50.792;4.352;2022-12-18T08:17:35;7.03;;;6.32;;
22468;SDS011;11401;50.792;4.352;2022-12-18T08:20:02;6.75;;;5.60;;
22468;SDS011;11401;50.792;4.352;2022-12-18T08:22:30;8.50;;;6.28;;
22468;SDS011;11401;50.792;4.352;2022-12-18T08:25:00;8.05;;;5.93;;
22468;SDS011;11401;50.792;4.352;2022-12-18T08:27:27;7.30;;;6.18;;
22468;SDS011;11401;50.792;4.352;2022-12-18T08:29:56;7.95;;;6.00;;
22468;SDS011;11401;50.792;4.352;2022-12-18T08:32:24;6.88;;;6.13;;
22468;SDS011;11401;50.792;4.352;2022-12-18T08:34:52;7.32;;;5.72;;
22468;SDS011;11401;50.792;4.352;2022-12-18T08:37:19;7.35;;;6.22;;
22468;SDS011;11401;50.792;4.352;2022-12-18T08:39:46;8.35;;;6.72;;
22468;SDS011;11401;50.792;4.352;2022-12-18T08:42:13;8.68;;;6.18;;
22468;SDS011;11401;50.792;4.352;2022-12-18T08:44:58;8.82;;;6.55;;
22468;SDS011;11401;50.792;4.352;2022-12-18T08:47:25;6.78;;;6.03;;
22468;SDS011;11401;50.792;4.352;2022-12-18T08:49:52;7.47;;;6.32;;
22468;SDS011;11401;50.792;4.352;2022-12-18T08:52:19;8.38;;;6.38;;
22468;SDS011;11401;50.792;4.352;2022-12-18T08:54:46;9.18;;;6.65;;
22468;SDS011;11401;50.792;4.352;2022-12-18T08:57:13;9.23;;;6.88;;
22468;SDS011;11401;50.792;4.352;2022-12-18T08:59:40;9.13;;;6.95;;
22468;SDS011;11401;50.792;4.352;2022-12-18T09:02:09;10.32;;;6.78;;
22468;SDS011;11401;50.792;4.352;2022-12-18T09:04:37;9.10;;;6.90;;
22468;SDS011;11401;50.792;4.352;2022-12-18T09:07:06;8.45;;;6.90;;
22468;SDS011;11401;50.792;4.352;2022-12-18T09:09:32;13.15;;;7.00;;
22468;SDS011;11401;50.792;4.352;2022-12-18T09:11:59;9.48;;;7.13;;
22468;SDS011;11401;50.792;4.352;2022-12-18T09:14:26;11.07;;;7.32;;
22468;SDS011;11401;50.792;4.352;2022-12-18T09:16:53;12.13;;;7.70;;
22468;SDS011;11401;50.792;4.352;2022-12-18T09:19:21;10.85;;;7.03;;
22468;SDS011;11401;50.792;4.352;2022-12-18T09:21:48;10.25;;;7.63;;
22468;SDS011;11401;50.792;4.352;2022-12-18T09:24:15;10.02;;;7.10;;
22468;SDS011;11401;50.792;4.352;2022-12-18T09:26:43;10.48;;;7.13;;
22468;SDS011;11401;50.792;4.352;2022-12-18T09:29:13;9.65;;;7.43;;
22468;SDS011;11401;50.792;4.352;2022-12-18T09:31:43;8.60;;;7.40;;
22468;SDS011;11401;50.792;4.352;2022-12-18T09:34:10;7.97;;;6.32;;
22468;SDS011;11401;50.792;4.352;2022-12-18T09:36:37;11.13;;;7.63;;
22468;SDS011;11401;50.792;4.352;2022-12-18T09:39:04;9.65;;;7.72;;
22468;SDS011;11401;50.792;4.352;2022-12-18T09:41:53;13.10;;;8.05;;
22468;SDS011;11401;50.792;4.352;2022-12-18T09:46:58;9.85;;;7.15;;
22468;SDS011;11401;50.792;4.352;2022-12-18T09:49:43;25.25;;;10.25;;
22468;SDS011;11401;50.792;4.352;2022-12-18T09:52:16;16.98;;;7.40;;
22468;SDS011;11401;50.792;4.352;2022-12-18T09:55:00;15.88;;;8.05;;
22468;SDS011;11401;50.792;4.352;2022-12-18T09:57:33;13.32;;;7.50;;
22468;SDS011;11401;50.792;4.352;2022-12-18T10:02:44;13.85;;;8.63;;
22468;SDS011;11401;50.792;4.352;2022-12-18T10:05:13;15.18;;;8.48;;
22468;SDS011;11401;50.792;4.352;2022-12-18T10:10:30;18.17;;;8.35;;
22468;SDS011;11401;50.792;4.352;2022-12-18T10:13:09;14.18;;;7.93;;
22468;SDS011;11401;50.792;4.352;2022-12-18T10:18:36;9.95;;;6.95;;
22468;SDS011;11401;50.792;4.352;2022-12-18T10:21:56;11.40;;;7.38;;
22468;SDS011;11401;50.792;4.352;2022-12-18T10:26:59;11.38;;;7.75;;
22468;SDS011;11401;50.792;4.352;2022-12-18T10:29:37;10.45;;;7.63;;
22468;SDS011;11401;50.792;4.352;2022-12-18T10:32:04;13.23;;;8.48;;
22468;SDS011;11401;50.792;4.352;2022-12-18T10:34:31;12.52;;;8.02;;
22468;SDS011;11401;50.792;4.352;2022-12-18T10:36:59;13.23;;;7.53;;
22468;SDS011;11401;50.792;4.352;2022-12-18T10:39:30;10.90;;;7.60;;
22468;SDS011;11401;50.792;4.352;2022-12-18T10:42:09;13.52;;;8.43;;
22468;SDS011;11401;50.792;4.352;2022-12-18T10:44:42;12.65;;;8.30;;
22468;SDS011;11401;50.792;4.352;2022-12-18T10:47:11;10.02;;;7.22;;
22468;SDS011;11401;50.792;4.352;2022-12-18T10:49:42;9.70;;;7.47;;
22468;SDS011;11401;50.792;4.352;2022-12-18T10:52:18;12.40;;;7.35;;
22468;SDS011;11401;50.792;4.352;2022-12-18T10:54:50;11.35;;;7.53;;
22468;SDS011;11401;50.792;4.352;2022-12-18T10:57:35;11.68;;;8.00;;
22468;SDS011;11401;50.792;4.352;2022-12-18T11:02:54;10.27;;;7.82;;
22468;SDS011;11401;50.792;4.352;2022-12-18T11:05:27;11.38;;;7.85;;
22468;SDS011;11401;50.792;4.352;2022-12-18T11:07:58;10.43;;;7.20;;
22468;SDS011;11401;50.792;4.352;2022-12-18T11:10:44;11.52;;;8.27;;
22468;SDS011;11401;50.792;4.352;2022-12-18T11:13:17;12.52;;;8.00;;
22468;SDS011;11401;50.792;4.352;2022-12-18T11:15:47;11.50;;;7.65;;
22468;SDS011;11401;50.792;4.352;2022-12-18T11:18:16;9.32;;;7.40;;
22468;SDS011;11401;50.792;4.352;2022-12-18T11:20:43;12.27;;;8.45;;
22468;SDS011;11401;50.792;4.352;2022-12-18T11:23:23;10.77;;;8.07;;
22468;SDS011;11401;50.792;4.352;2022-12-18T11:26:01;9.90;;;7.20;;
22468;SDS011;11401;50.792;4.352;2022-12-18T11:33:58;14.23;;;8.25;;
22468;SDS011;11401;50.792;4.352;2022-12-18T11:36:55;12.35;;;8.40;;
22468;SDS011;11401;50.792;4.352;2022-12-18T11:47:58;11.25;;;8.55;;
22468;SDS011;11401;50.792;4.352;2022-12-18T11:53:03;13.30;;;8.75;;
22468;SDS011;11401;50.792;4.352;2022-12-18T12:09:17;11.38;;;8.65;;
22468;SDS011;11401;50.792;4.352;2022-12-18T12:14:47;12.18;;;9.45;;
22468;SDS011;11401;50.792;4.352;2022-12-18T12:22:56;14.20;;;9.07;;
22468;SDS011;11401;50.792;4.352;2022-12-18T12:25:40;13.60;;;9.35;;
22468;SDS011;11401;50.792;4.352;2022-12-18T12:40:01;14.02;;;9.85;;
22468;SDS011;11401;50.792;4.352;2022-12-18T12:42:51;15.13;;;10.63;;
22468;SDS011;11401;50.792;4.352;2022-12-18T12:48:28;13.50;;;9.60;;
22468;SDS011;11401;50.792;4.352;2022-12-18T12:51:12;13.02;;;9.48;;
22468;SDS011;11401;50.792;4.352;2022-12-18T12:53:42;14.90;;;10.07;;
22468;SDS011;11401;50.792;4.352;2022-12-18T12:56:11;14.70;;;9.70;;
22468;SDS011;11401;50.792;4.352;2022-12-18T13:04:14;14.02;;;10.05;;
22468;SDS011;11401;50.792;4.352;2022-12-18T13:12:53;14.90;;;10.35;;
22468;SDS011;11401;50.792;4.352;2022-12-18T13:18:22;15.32;;;10.90;;
22468;SDS011;11401;50.792;4.352;2022-12-18T13:23:29;18.80;;;11.13;;
22468;SDS011;11401;50.792;4.352;2022-12-18T13:28:54;16.15;;;11.05;;
22468;SDS011;11401;50.792;4.352;2022-12-18T13:36:56;17.95;;;11.52;;
22468;SDS011;11401;50.792;4.352;2022-12-18T13:39:44;17.17;;;10.95;;
22468;SDS011;11401;50.792;4.352;2022-12-18T13:44:59;18.83;;;11.63;;
22468;SDS011;11401;50.792;4.352;2022-12-18T13:47:33;17.35;;;11.68;;
22468;SDS011;11401;50.792;4.352;2022-12-18T13:50:37;18.02;;;11.60;;
22468;SDS011;11401;50.792;4.352;2022-12-18T13:53:01;17.77;;;11.90;;
22468;SDS011;11401;50.792;4.352;2022-12-18T13:55:31;17.13;;;11.85;;
22468;SDS011;11401;50.792;4.352;2022-12-18T13:58:05;18.40;;;11.68;;
22468;SDS011;11401;50.792;4.352;2022-12-18T14:00:33;19.00;;;12.07;;
22468;SDS011;11401;50.792;4.352;2022-12-18T14:03:00;18.95;;;11.80;;
22468;SDS011;11401;50.792;4.352;2022-12-18T14:08:00;19.45;;;12.45;;
22468;SDS011;11401;50.792;4.352;2022-12-18T14:10:40;20.38;;;12.30;;
22468;SDS011;11401;50.792;4.352;2022-12-18T14:13:28;20.15;;;12.77;;
22468;SDS011;11401;50.792;4.352;2022-12-18T14:15:59;17.98;;;11.95;;
22468;SDS011;11401;50.792;4.352;2022-12-18T14:20:59;20.80;;;12.20;;
22468;SDS011;11401;50.792;4.352;2022-12-18T14:26:25;18.20;;;12.93;;
22468;SDS011;11401;50.792;4.352;2022-12-18T14:28:57;21.45;;;13.88;;
22468;SDS011;11401;50.792;4.352;2022-12-18T14:31:29;20.88;;;13.25;;
22468;SDS011;11401;50.792;4.352;2022-12-18T14:33:57;23.23;;;14.15;;
22468;SDS011;11401;50.792;4.352;2022-12-18T14:36:27;20.30;;;12.85;;
22468;SDS011;11401;50.792;4.352;2022-12-18T14:38:55;16.90;;;12.32;;
22468;SDS011;11401;50.792;4.352;2022-12-18T14:41:24;23.75;;;13.95;;
22468;SDS011;11401;50.792;4.352;2022-12-18T14:43:52;20.23;;;13.50;;
22468;SDS011;11401;50.792;4.352;2022-12-18T14:51:49;23.27;;;13.00;;
22468;SDS011;11401;50.792;4.352;2022-12-18T14:54:19;21.33;;;12.70;;
22468;SDS011;11401;50.792;4.352;2022-12-18T14:56:47;18.90;;;12.40;;
22468;SDS011;11401;50.792;4.352;2022-12-18T14:59:20;21.83;;;12.93;;
22468;SDS011;11401;50.792;4.352;2022-12-18T15:04:28;21.80;;;12.73;;
22468;SDS011;11401;50.792;4.352;2022-12-18T15:07:09;20.35;;;13.15;;
22468;SDS011;11401;50.792;4.352;2022-12-18T15:09:37;23.45;;;12.93;;
22468;SDS011;11401;50.792;4.352;2022-12-18T15:12:15;23.40;;;13.98;;
22468;SDS011;11401;50.792;4.352;2022-12-18T15:14:51;19.10;;;13.05;;
22468;SDS011;11401;50.792;4.352;2022-12-18T15:17:21;22.05;;;14.00;;
22468;SDS011;11401;50.792;4.352;2022-12-18T15:19:52;20.00;;;13.30;;
22468;SDS011;11401;50.792;4.352;2022-12-18T15:22:28;23.17;;;14.10;;
22468;SDS011;11401;50.792;4.352;2022-12-18T15:25:00;21.38;;;13.38;;
22468;SDS011;11401;50.792;4.352;2022-12-18T15:27:31;22.40;;;14.25;;
22468;SDS011;11401;50.792;4.352;2022-12-18T15:30:23;25.10;;;16.38;;
22468;SDS011;11401;50.792;4.352;2022-12-18T15:32:50;20.92;;;14.30;;
22468;SDS011;11401;50.792;4.352;2022-12-18T15:35:23;22.63;;;15.13;;
22468;SDS011;11401;50.792;4.352;2022-12-18T15:37:51;39.55;;;19.73;;
22468;SDS011;11401;50.792;4.352;2022-12-18T15:40:23;35.17;;;17.85;;
22468;SDS011;11401;50.792;4.352;2022-12-18T15:42:51;28.45;;;17.13;;
22468;SDS011;11401;50.792;4.352;2022-12-18T15:45:39;32.47;;;17.90;;
22468;SDS011;11401;50.792;4.352;2022-12-18T15:51:08;27.60;;;17.60;;
22468;SDS011;11401;50.792;4.352;2022-12-18T15:53:42;28.38;;;17.08;;
22468;SDS011;11401;50.792;4.352;2022-12-18T15:56:10;27.85;;;15.65;;
22468;SDS011;11401;50.792;4.352;2022-12-18T15:58:56;24.83;;;15.30;;
22468;SDS011;11401;50.792;4.352;2022-12-18T16:01:25;27.70;;;16.23;;
22468;SDS011;11401;50.792;4.352;2022-12-18T16:03:54;29.63;;;16.65;;
22468;SDS011;11401;50.792;4.352;2022-12-18T16:06:22;23.17;;;14.45;;
22468;SDS011;11401;50.792;4.352;2022-12-18T16:08:49;27.55;;;15.00;;
22468;SDS011;11401;50.792;4.352;2022-12-18T16:14:05;29.05;;;17.67;;
22468;SDS011;11401;50.792;4.352;2022-12-18T16:16:46;26.85;;;14.98;;
22468;SDS011;11401;50.792;4.352;2022-12-18T16:19:14;22.20;;;14.30;;
22468;SDS011;11401;50.792;4.352;2022-12-18T16:21:42;25.95;;;14.63;;
22468;SDS011;11401;50.792;4.352;2022-12-18T16:24:13;25.77;;;15.30;;
22468;SDS011;11401;50.792;4.352;2022-12-18T16:26:59;24.40;;;13.52;;
22468;SDS011;11401;50.792;4.352;2022-12-18T16:29:28;22.65;;;13.90;;
22468;SDS011;11401;50.792;4.352;2022-12-18T16:31:59;22.02;;;13.65;;
22468;SDS011;11401;50.792;4.352;2022-12-18T16:34:30;25.95;;;15.38;;
22468;SDS011;11401;50.792;4.352;2022-12-18T16:37:02;23.33;;;14.00;;
22468;SDS011;11401;50.792;4.352;2022-12-18T16:39:32;28.08;;;13.45;;
22468;SDS011;11401;50.792;4.352;2022-12-18T16:42:11;21.35;;;13.23;;
22468;SDS011;11401;50.792;4.352;2022-12-18T16:44:42;23.95;;;14.23;;
22468;SDS011;11401;50.792;4.352;2022-12-18T16:47:10;23.50;;;14.05;;
22468;SDS011;11401;50.792;4.352;2022-12-18T16:49:40;23.63;;;13.98;;
22468;SDS011;11401;50.792;4.352;2022-12-18T16:52:08;22.35;;;13.60;;
22468;SDS011;11401;50.792;4.352;2022-12-18T16:54:35;19.85;;;12.52;;
22468;SDS011;11401;50.792;4.352;2022-12-18T16:57:02;24.85;;;14.02;;
22468;SDS011;11401;50.792;4.352;2022-12-18T16:59:31;24.15;;;13.15;;
22468;SDS011;11401;50.792;4.352;2022-12-18T17:01:58;23.02;;;13.52;;
22468;SDS011;11401;50.792;4.352;2022-12-18T17:04:25;23.52;;;13.77;;
22468;SDS011;11401;50.792;4.352;2022-12-18T17:06:52;22.42;;;13.10;;
22468;SDS011;11401;50.792;4.352;2022-12-18T17:09:20;18.73;;;12.30;;
22468;SDS011;11401;50.792;4.352;2022-12-18T17:11:49;21.90;;;13.45;;
22468;SDS011;11401;50.792;4.352;2022-12-18T17:14:18;19.63;;;12.45;;
22468;SDS011;11401;50.792;4.352;2022-12-18T17:16:46;22.27;;;12.95;;
22468;SDS011;11401;50.792;4.352;2022-12-18T17:19:34;21.15;;;12.55;;
22468;SDS011;11401;50.792;4.352;2022-12-18T17:22:01;25.30;;;13.00;;
22468;SDS011;11401;50.792;4.352;2022-12-18T17:24:29;23.05;;;12.60;;